createdAt,value
2017-09-17T00:02:21.553Z,74.40
2017-09-17T00:04:49.004Z,74.50
2017-09-17T00:07:16.474Z,74.50
2017-09-17T00:09:43.937Z,74.50
2017-09-17T00:12:11.388Z,74.50
2017-09-17T00:14:38.845Z,74.50
2017-09-17T00:17:06.308Z,74.50
2017-09-17T00:19:33.771Z,74.50
2017-09-17T00:22:01.227Z,74.50
2017-09-17T00:24:28.713Z,74.50
2017-09-17T00:26:56.156Z,74.60
2017-09-17T00:29:23.605Z,74.70
2017-09-17T00:31:51.061Z,74.70
2017-09-17T00:34:18.529Z,74.60
2017-09-17T00:36:45.999Z,74.60
2017-09-17T00:39:13.457Z,74.60
2017-09-17T00:41:40.944Z,74.60
2017-09-17T00:44:08.398Z,74.50
2017-09-17T00:46:35.845Z,74.70
2017-09-17T00:49:03.314Z,74.70
2017-09-17T00:51:30.765Z,75.00
2017-09-17T00:53:58.239Z,75.10
2017-09-17T00:56:25.695Z,75.10
2017-09-17T00:58:53.159Z,75.00
2017-09-17T01:01:20.609Z,75.10
2017-09-17T01:03:48.852Z,76.10
2017-09-17T01:06:16.338Z,75.10
2017-09-17T01:08:43.786Z,76.20
2017-09-17T01:11:11.249Z,75.40
2017-09-17T01:13:38.721Z,75.10
2017-09-17T01:16:06.175Z,75.00
2017-09-17T01:18:33.634Z,75.00
2017-09-17T01:21:01.076Z,75.00
2017-09-17T01:23:28.537Z,75.00
2017-09-17T01:25:55.976Z,75.00
2017-09-17T01:28:23.644Z,75.00
2017-09-17T01:30:51.084Z,75.00
2017-09-17T01:33:19.325Z,76.10
2017-09-17T01:35:46.763Z,76.10
2017-09-17T01:38:14.220Z,75.20
2017-09-17T01:40:41.689Z,75.10
2017-09-17T01:43:09.146Z,75.10
2017-09-17T01:45:36.608Z,76.10
2017-09-17T01:48:04.066Z,75.10
2017-09-17T01:50:31.516Z,75.20
2017-09-17T01:52:58.987Z,75.10
2017-09-17T01:55:26.432Z,75.10
2017-09-17T01:57:53.917Z,75.20
2017-09-17T02:00:21.356Z,76.10
2017-09-17T02:02:49.570Z,75.10
2017-09-17T02:05:17.033Z,76.10
2017-09-17T02:07:44.488Z,75.10
2017-09-17T02:10:13.888Z,75.00
2017-09-17T02:12:41.333Z,75.00
2017-09-17T02:15:08.789Z,75.00
2017-09-17T02:17:37.016Z,75.00
2017-09-17T02:20:04.466Z,75.00
2017-09-17T02:22:31.949Z,75.10
2017-09-17T02:25:00.149Z,76.90
2017-09-17T02:27:27.606Z,76.20
2017-09-17T02:29:55.070Z,76.30
2017-09-17T02:32:22.525Z,76.40
2017-09-17T02:34:49.999Z,76.40
2017-09-17T02:37:17.450Z,76.60
2017-09-17T02:39:45.675Z,76.70
2017-09-17T02:42:13.905Z,76.70
2017-09-17T02:44:41.349Z,76.70
2017-09-17T02:47:08.799Z,76.70
2017-09-17T02:49:36.251Z,76.70
2017-09-17T02:52:03.728Z,76.70
2017-09-17T02:54:31.164Z,76.70
2017-09-17T02:56:58.609Z,76.40
2017-09-17T02:59:26.060Z,76.50
2017-09-17T03:01:53.503Z,76.50
2017-09-17T03:04:20.957Z,76.50
2017-09-17T03:06:48.400Z,76.70
2017-09-17T03:09:15.884Z,76.90
2017-09-17T03:11:43.328Z,76.90
2017-09-17T03:14:10.775Z,77.10
2017-09-17T03:16:38.224Z,77.20
2017-09-17T03:19:06.432Z,77.30
2017-09-17T03:21:33.894Z,77.20
2017-09-17T03:24:01.350Z,77.30
2017-09-17T03:26:28.816Z,77.30
2017-09-17T03:28:56.285Z,77.30
2017-09-17T03:31:23.729Z,77.30
2017-09-17T03:33:51.182Z,77.40
2017-09-17T03:36:19.409Z,77.70
2017-09-17T03:38:47.629Z,77.70
2017-09-17T03:41:15.849Z,77.70
2017-09-17T03:43:43.327Z,77.70
2017-09-17T03:46:10.773Z,77.60
2017-09-17T03:48:38.217Z,77.50
2017-09-17T03:51:05.683Z,77.60
2017-09-17T03:53:33.143Z,77.50
2017-09-17T03:56:00.611Z,77.50
2017-09-17T03:58:28.057Z,77.60
2017-09-17T04:00:56.272Z,77.50
2017-09-17T04:03:23.711Z,77.50
2017-09-17T04:05:51.150Z,77.40
2017-09-17T04:08:19.373Z,77.30
2017-09-17T04:10:46.837Z,77.30
2017-09-17T04:13:14.317Z,77.40
2017-09-17T04:15:41.773Z,77.50
2017-09-17T04:18:09.221Z,77.50
2017-09-17T04:20:36.689Z,77.50
2017-09-17T04:23:04.145Z,77.30
2017-09-17T04:25:31.597Z,77.40
2017-09-17T04:27:59.045Z,77.30
2017-09-17T04:30:27.296Z,77.30
2017-09-17T04:32:54.728Z,77.30
2017-09-17T04:35:22.189Z,77.30
2017-09-17T04:37:49.636Z,77.30
2017-09-17T04:40:17.088Z,77.50
2017-09-17T04:42:44.540Z,77.50
2017-09-17T04:45:12.767Z,77.70
2017-09-17T04:47:40.245Z,77.70
2017-09-17T04:50:07.689Z,77.70
2017-09-17T04:52:35.138Z,77.80
2017-09-17T04:55:02.599Z,77.70
2017-09-17T04:57:30.042Z,77.70
2017-09-17T04:59:57.501Z,77.70
2017-09-17T05:02:24.955Z,77.70
2017-09-17T05:04:53.184Z,77.60
2017-09-17T05:07:20.628Z,77.60
2017-09-17T05:09:48.087Z,77.50
2017-09-17T05:12:15.541Z,77.50
2017-09-17T05:14:42.995Z,77.40
2017-09-17T05:17:10.454Z,77.30
2017-09-17T05:19:37.892Z,77.40
2017-09-17T05:22:05.345Z,77.40
2017-09-17T05:24:32.788Z,77.50
2017-09-17T05:27:00.276Z,77.60
2017-09-17T05:29:27.724Z,77.50
2017-09-17T05:31:55.169Z,77.40
2017-09-17T05:34:22.628Z,77.40
2017-09-17T05:36:50.081Z,77.30
2017-09-17T05:39:17.535Z,77.40
2017-09-17T05:41:44.985Z,77.60
2017-09-17T05:44:12.453Z,77.70
2017-09-17T05:46:39.905Z,77.70
2017-09-17T05:49:07.353Z,77.80
2017-09-17T05:51:35.573Z,77.70
2017-09-17T05:54:03.016Z,77.70
2017-09-17T05:56:30.469Z,77.90
2017-09-17T05:58:58.682Z,78.70
2017-09-17T06:01:26.158Z,77.90
2017-09-17T06:03:53.615Z,78.10
2017-09-17T06:06:21.076Z,78.10
2017-09-17T06:08:48.535Z,78.10
2017-09-17T06:11:15.990Z,78.20
2017-09-17T06:13:43.460Z,78.30
2017-09-17T06:16:10.896Z,78.30
2017-09-17T06:18:38.353Z,78.30
2017-09-17T06:21:06.608Z,78.50
2017-09-17T06:23:34.048Z,78.40
2017-09-17T06:26:01.499Z,78.40
2017-09-17T06:28:28.944Z,78.40
2017-09-17T06:30:56.401Z,78.30
2017-09-17T06:33:23.845Z,78.30
2017-09-17T06:35:52.083Z,79.00
2017-09-17T06:38:19.528Z,78.30
2017-09-17T06:40:46.980Z,78.40
2017-09-17T06:43:14.433Z,78.30
2017-09-17T06:45:41.892Z,78.40
2017-09-17T06:48:09.342Z,78.40
2017-09-17T06:50:36.800Z,78.40
2017-09-17T06:53:05.040Z,78.30
2017-09-17T06:55:32.488Z,78.30
2017-09-17T06:57:59.941Z,78.40
2017-09-17T07:00:27.397Z,78.30
2017-09-17T07:02:54.864Z,78.30
2017-09-17T07:05:22.329Z,77.20
2017-09-17T07:07:49.780Z,77.20
2017-09-17T07:10:17.265Z,77.40
2017-09-17T07:12:44.713Z,77.40
2017-09-17T07:15:12.168Z,77.40
2017-09-17T07:17:39.632Z,77.40
2017-09-17T07:20:07.100Z,77.50
2017-09-17T07:22:34.558Z,77.50
2017-09-17T07:25:02.033Z,77.50
2017-09-17T07:27:29.508Z,77.50
2017-09-17T07:29:56.972Z,77.50
2017-09-17T07:32:24.426Z,77.60
2017-09-17T07:34:51.885Z,77.70
2017-09-17T07:37:19.345Z,77.70
2017-09-17T07:39:46.825Z,77.60
2017-09-17T07:42:14.280Z,77.80
2017-09-17T07:44:41.749Z,77.80
2017-09-17T07:47:09.199Z,77.80
2017-09-17T07:49:36.648Z,77.90
2017-09-17T07:52:04.117Z,77.90
2017-09-17T07:54:31.576Z,78.20
2017-09-17T07:56:59.036Z,78.20
2017-09-17T07:59:26.494Z,78.20
2017-09-17T08:01:53.978Z,78.20
2017-09-17T08:04:21.425Z,78.50
2017-09-17T08:06:48.875Z,78.30
2017-09-17T08:09:16.336Z,78.30
2017-09-17T08:11:43.792Z,78.30
2017-09-17T08:14:12.026Z,78.30
2017-09-17T08:16:39.481Z,78.30
2017-09-17T08:19:06.994Z,78.30
2017-09-17T08:21:35.206Z,78.20
2017-09-17T08:24:02.664Z,78.20
2017-09-17T08:26:30.126Z,78.00
2017-09-17T08:28:57.573Z,77.80
2017-09-17T08:31:25.039Z,77.70
2017-09-17T08:33:52.492Z,77.80
2017-09-17T08:36:20.733Z,77.80
2017-09-17T08:38:48.180Z,77.70
2017-09-17T08:41:15.631Z,77.70
2017-09-17T08:43:43.079Z,77.60
2017-09-17T08:46:10.527Z,77.90
2017-09-17T08:48:37.975Z,77.70
2017-09-17T08:51:06.184Z,77.70
2017-09-17T08:53:33.661Z,77.70
2017-09-17T08:56:01.121Z,77.70
2017-09-17T08:58:29.577Z,77.70
2017-09-17T09:00:57.819Z,77.80
2017-09-17T09:03:25.269Z,77.60
2017-09-17T09:05:52.728Z,77.60
2017-09-17T09:08:20.186Z,78.10
2017-09-17T09:10:47.675Z,77.30
2017-09-17T09:13:15.124Z,77.30
2017-09-17T09:15:42.572Z,77.20
2017-09-17T09:18:10.028Z,76.70
2017-09-17T09:20:37.481Z,76.90
2017-09-17T09:23:04.938Z,76.80
2017-09-17T09:25:32.384Z,76.60
2017-09-17T09:27:59.868Z,76.70
2017-09-17T09:30:27.313Z,76.60
2017-09-17T09:32:54.768Z,76.60
2017-09-17T09:35:22.988Z,76.60
2017-09-17T09:37:50.433Z,76.60
2017-09-17T09:40:17.904Z,76.40
2017-09-17T09:42:46.125Z,76.00
2017-09-17T09:45:13.601Z,76.00
2017-09-17T09:47:41.053Z,76.10
2017-09-17T09:50:08.502Z,76.20
2017-09-17T09:52:35.974Z,76.20
2017-09-17T09:55:03.429Z,76.00
2017-09-17T09:57:30.906Z,75.70
2017-09-17T09:59:58.352Z,75.60
2017-09-17T10:02:25.813Z,75.50
2017-09-17T10:04:53.269Z,75.60
2017-09-17T10:07:20.720Z,75.70
2017-09-17T10:09:48.180Z,75.80
2017-09-17T10:12:15.633Z,75.90
2017-09-17T10:14:43.090Z,76.00
2017-09-17T10:17:10.561Z,76.20
2017-09-17T10:19:38.003Z,76.10
2017-09-17T10:22:05.513Z,76.10
2017-09-17T10:24:32.970Z,76.10
2017-09-17T10:27:00.417Z,76.20
2017-09-17T10:29:27.876Z,76.20
2017-09-17T10:31:55.326Z,76.20
2017-09-17T10:34:22.780Z,76.20
2017-09-17T10:36:50.232Z,76.20
2017-09-17T10:39:18.477Z,76.10
2017-09-17T10:41:45.946Z,76.20
2017-09-17T10:44:13.386Z,76.20
2017-09-17T10:46:40.844Z,76.20
2017-09-17T10:49:08.298Z,76.20
2017-09-17T10:51:35.777Z,76.20
2017-09-17T10:54:03.242Z,76.20
2017-09-17T10:56:30.690Z,76.30
2017-09-17T10:58:58.140Z,76.40
2017-09-17T11:01:25.611Z,76.30
2017-09-17T11:03:53.054Z,76.20
2017-09-17T11:06:20.514Z,76.30
2017-09-17T11:08:47.989Z,76.40
2017-09-17T11:11:15.440Z,76.30
2017-09-17T11:13:42.895Z,76.00
2017-09-17T11:16:11.116Z,75.30
2017-09-17T11:18:38.584Z,75.30
2017-09-17T11:21:06.065Z,72.80
2017-09-17T11:23:33.538Z,72.20
2017-09-17T11:26:00.993Z,72.00
2017-09-17T11:28:28.455Z,72.40
2017-09-17T11:30:55.905Z,72.80
2017-09-17T11:33:23.381Z,72.30
2017-09-17T11:35:50.833Z,72.40
2017-09-17T11:38:18.277Z,72.30
2017-09-17T11:40:45.736Z,71.80
2017-09-17T11:43:13.182Z,71.20
2017-09-17T11:45:40.637Z,71.40
2017-09-17T11:48:08.076Z,71.20
2017-09-17T11:50:36.293Z,71.80
2017-09-17T11:53:03.749Z,71.80
2017-09-17T11:55:31.200Z,71.50
2017-09-17T11:57:59.474Z,71.60
2017-09-17T12:00:27.677Z,72.00
2017-09-17T12:02:55.161Z,71.90
2017-09-17T12:05:22.609Z,72.30
2017-09-17T12:07:50.069Z,71.20
2017-09-17T12:10:17.520Z,71.10
2017-09-17T12:12:44.974Z,72.00
2017-09-17T12:15:12.449Z,71.50
2017-09-17T12:17:39.901Z,70.80
2017-09-17T12:20:07.347Z,69.60
2017-09-17T12:22:35.609Z,70.40
2017-09-17T12:25:03.069Z,70.40
2017-09-17T12:27:30.525Z,70.70
2017-09-17T12:29:57.964Z,70.20
2017-09-17T12:32:25.446Z,70.30
2017-09-17T12:34:52.897Z,69.50
2017-09-17T12:37:20.344Z,70.30
2017-09-17T12:39:47.809Z,70.60
2017-09-17T12:42:15.261Z,70.80
2017-09-17T12:44:42.721Z,71.00
2017-09-17T12:47:10.168Z,71.10
2017-09-17T12:49:37.663Z,71.40
2017-09-17T12:52:05.110Z,71.20
2017-09-17T12:54:32.559Z,68.50
2017-09-17T12:57:00.008Z,68.10
2017-09-17T12:59:28.240Z,70.00
2017-09-17T13:01:55.718Z,70.00
2017-09-17T13:04:23.168Z,70.00
2017-09-17T13:06:50.611Z,70.10
2017-09-17T13:09:18.073Z,68.50
2017-09-17T13:11:45.525Z,66.70
2017-09-17T13:14:13.003Z,68.10
2017-09-17T13:16:40.452Z,66.30
2017-09-17T13:19:07.906Z,64.20
2017-09-17T13:21:35.368Z,66.30
2017-09-17T13:24:02.822Z,65.10
2017-09-17T13:26:31.049Z,67.20
2017-09-17T13:28:58.499Z,67.20
2017-09-17T13:31:25.948Z,67.40
2017-09-17T13:33:53.410Z,66.80
2017-09-17T13:36:20.850Z,67.00
2017-09-17T13:38:49.080Z,66.00
2017-09-17T13:41:16.615Z,66.00
2017-09-17T13:43:44.076Z,66.00
2017-09-17T13:46:11.525Z,64.60
2017-09-17T13:48:38.977Z,65.50
2017-09-17T13:51:07.201Z,64.60
2017-09-17T13:53:34.650Z,64.60
2017-09-17T13:56:02.109Z,64.70
2017-09-17T13:58:29.567Z,64.20
2017-09-17T14:00:59.553Z,62.90
2017-09-17T14:03:27.005Z,63.50
2017-09-17T14:11:37.767Z,62.40
2017-09-17T14:14:05.977Z,63.10
2017-09-17T14:16:33.457Z,62.20
2017-09-17T14:19:00.911Z,62.10
2017-09-17T14:21:28.348Z,61.00
2017-09-17T14:23:55.804Z,60.40
2017-09-17T14:26:24.024Z,58.60
2017-09-17T14:28:51.484Z,58.60
2017-09-17T14:31:19.056Z,58.10
2017-09-17T14:33:46.532Z,59.50
2017-09-17T14:36:13.977Z,59.70
2017-09-17T14:38:41.426Z,59.70
2017-09-17T14:41:08.888Z,60.20
2017-09-17T14:43:36.333Z,60.30
2017-09-17T14:46:03.793Z,60.10
2017-09-17T14:48:32.048Z,60.80
2017-09-17T14:50:59.512Z,60.70
2017-09-17T14:53:26.970Z,60.90
2017-09-17T14:55:54.421Z,61.40
2017-09-17T14:58:21.882Z,61.30
2017-09-17T15:00:49.329Z,61.40
2017-09-17T15:03:16.794Z,61.50
2017-09-17T15:05:44.253Z,61.60
2017-09-17T15:08:11.729Z,62.20
2017-09-17T15:10:39.173Z,61.80
2017-09-17T15:13:06.625Z,62.50
2017-09-17T15:15:34.086Z,61.60
2017-09-17T15:18:01.561Z,62.70
2017-09-17T15:20:29.045Z,62.90
2017-09-17T15:22:56.490Z,62.70
2017-09-17T15:25:23.969Z,63.00
2017-09-17T15:27:51.422Z,63.30
2017-09-17T15:30:18.861Z,63.50
2017-09-17T15:32:46.320Z,63.70
2017-09-17T15:35:13.770Z,63.90
2017-09-17T15:37:41.226Z,64.10
2017-09-17T15:40:09.441Z,64.50
2017-09-17T15:42:36.917Z,64.40
2017-09-17T15:45:04.369Z,64.70
2017-09-17T15:47:31.817Z,64.80
2017-09-17T15:49:59.272Z,65.00
2017-09-17T15:52:26.721Z,65.10
2017-09-17T15:54:54.181Z,65.30
2017-09-17T15:57:22.380Z,65.60
2017-09-17T15:59:49.861Z,65.60
2017-09-17T16:02:17.305Z,65.50
2017-09-17T16:04:44.756Z,65.70
2017-09-17T16:07:12.215Z,65.80
2017-09-17T16:09:40.426Z,65.90
2017-09-17T16:12:07.902Z,65.90
2017-09-17T16:14:35.352Z,65.90
2017-09-17T16:17:02.801Z,65.90
2017-09-17T16:19:30.281Z,66.00
2017-09-17T16:21:57.724Z,65.80
2017-09-17T16:24:25.193Z,65.80
2017-09-17T16:26:52.643Z,65.90
2017-09-17T16:29:20.122Z,66.00
2017-09-17T16:31:47.608Z,66.00
2017-09-17T16:34:15.049Z,66.10
2017-09-17T16:36:42.533Z,66.20
2017-09-17T16:39:09.985Z,66.20
2017-09-17T16:41:37.444Z,66.20
2017-09-17T16:44:04.906Z,66.20
2017-09-17T16:46:32.425Z,66.20
2017-09-17T16:49:00.633Z,66.30
2017-09-17T16:51:28.096Z,66.30
2017-09-17T16:53:55.562Z,66.40
2017-09-17T16:56:23.009Z,66.60
2017-09-17T16:58:50.469Z,66.60
2017-09-17T17:01:17.917Z,66.80
2017-09-17T17:03:46.129Z,67.00
2017-09-17T17:06:13.595Z,67.00
2017-09-17T17:08:41.054Z,67.00
2017-09-17T17:11:08.513Z,67.10
2017-09-17T17:13:35.975Z,67.20
2017-09-17T17:16:03.417Z,67.40
2017-09-17T17:18:31.634Z,67.50
2017-09-17T17:20:59.081Z,67.50
2017-09-17T17:23:26.546Z,67.60
2017-09-17T17:25:54.021Z,67.60
2017-09-17T17:28:21.469Z,67.70
2017-09-17T17:30:48.934Z,68.00
2017-09-17T17:33:16.393Z,68.10
2017-09-17T17:35:43.845Z,68.10
2017-09-17T17:38:11.300Z,68.10
2017-09-17T17:40:39.537Z,68.60
2017-09-17T17:43:06.994Z,68.50
2017-09-17T17:45:34.452Z,68.60
2017-09-17T17:48:01.913Z,68.70
2017-09-17T17:50:29.364Z,68.90
2017-09-17T17:52:56.829Z,69.00
2017-09-17T17:55:24.281Z,69.10
2017-09-17T17:57:51.770Z,69.20
2017-09-17T18:00:19.212Z,69.40
2017-09-17T18:02:46.665Z,69.50
2017-09-17T18:05:14.130Z,69.70
2017-09-17T18:07:41.576Z,69.90
2017-09-17T18:10:09.033Z,70.10
2017-09-17T18:12:37.248Z,70.30
2017-09-17T18:15:04.728Z,70.30
2017-09-17T18:17:32.170Z,70.40
2017-09-17T18:19:59.622Z,70.40
2017-09-17T18:22:27.081Z,70.60
2017-09-17T18:24:54.534Z,70.80
2017-09-17T18:27:22.010Z,71.00
2017-09-17T18:29:49.457Z,71.20
2017-09-17T18:32:16.896Z,71.30
2017-09-17T18:34:44.352Z,71.40
2017-09-17T18:37:11.809Z,71.50
2017-09-17T18:39:39.292Z,71.60
2017-09-17T18:42:07.556Z,71.90
2017-09-17T18:44:36.532Z,71.90
2017-09-17T18:47:03.989Z,71.80
2017-09-17T18:49:31.470Z,71.80
2017-09-17T18:51:58.940Z,71.90
2017-09-17T18:54:26.389Z,72.00
2017-09-17T18:56:53.848Z,72.00
2017-09-17T18:59:21.309Z,72.00
2017-09-17T19:01:48.757Z,72.10
2017-09-17T19:04:16.243Z,72.20
2017-09-17T19:06:43.701Z,72.30
2017-09-17T19:09:11.138Z,72.30
2017-09-17T19:11:38.601Z,72.40
2017-09-17T19:14:06.103Z,72.40
2017-09-17T19:16:33.584Z,72.60
2017-09-17T19:19:01.028Z,72.70
2017-09-17T19:21:28.473Z,73.40
2017-09-17T19:23:55.928Z,72.70
2017-09-17T19:26:23.388Z,72.70
2017-09-17T19:28:50.848Z,72.80
2017-09-17T19:31:18.292Z,72.80
2017-09-17T19:33:45.781Z,72.90
2017-09-17T19:36:13.229Z,72.90
2017-09-17T19:38:40.680Z,73.10
2017-09-17T19:41:08.141Z,73.10
2017-09-17T19:43:35.598Z,73.10
2017-09-17T19:46:03.044Z,73.30
2017-09-17T19:48:31.262Z,73.30
2017-09-17T19:50:58.738Z,73.30
2017-09-17T19:53:26.172Z,73.30
2017-09-17T19:55:53.620Z,73.20
2017-09-17T19:58:21.840Z,73.30
2017-09-17T20:00:49.292Z,73.20
2017-09-17T20:03:16.754Z,73.30
2017-09-17T20:05:45.208Z,73.30
2017-09-17T20:08:13.432Z,73.50
2017-09-17T20:10:40.880Z,73.50
2017-09-17T20:13:08.341Z,73.40
2017-09-17T20:15:35.794Z,73.50
2017-09-17T20:18:03.232Z,73.50
2017-09-17T20:20:31.449Z,73.50
2017-09-17T20:22:58.886Z,73.50
2017-09-17T20:25:26.350Z,73.60
2017-09-17T20:27:53.809Z,73.50
2017-09-17T20:30:22.137Z,73.40
2017-09-17T20:32:49.614Z,73.40
2017-09-17T20:35:17.174Z,73.50
2017-09-17T20:37:44.637Z,73.50
2017-09-17T20:40:12.081Z,73.50
2017-09-17T20:42:39.546Z,73.50
2017-09-17T20:45:06.992Z,73.50
2017-09-17T20:47:34.453Z,73.50
2017-09-17T20:50:02.000Z,73.40
2017-09-17T20:52:30.220Z,73.20
2017-09-17T20:54:57.665Z,73.10
2017-09-17T20:57:25.145Z,73.10
2017-09-17T20:59:52.600Z,73.30
2017-09-17T21:02:20.052Z,73.30
2017-09-17T21:04:47.504Z,73.40
2017-09-17T21:07:14.958Z,73.50
2017-09-17T21:09:42.421Z,73.30
2017-09-17T21:12:09.865Z,73.40
2017-09-17T21:14:38.108Z,73.50
2017-09-17T21:17:05.554Z,73.50
2017-09-17T21:19:33.010Z,73.40
2017-09-17T21:22:00.512Z,73.40
2017-09-17T21:24:27.978Z,73.40
2017-09-17T21:26:55.423Z,73.20
2017-09-17T21:29:22.864Z,73.90
2017-09-17T21:31:50.334Z,73.20
2017-09-17T21:34:17.782Z,73.30
2017-09-17T21:36:45.225Z,73.20
2017-09-17T21:39:12.691Z,73.20
2017-09-17T21:41:40.141Z,73.20
2017-09-17T21:44:08.377Z,73.20
2017-09-17T21:46:35.820Z,73.10
2017-09-17T21:49:03.293Z,73.30
2017-09-17T21:51:30.745Z,73.30
2017-09-17T21:53:58.221Z,73.40
2017-09-17T21:56:25.685Z,73.40
2017-09-17T21:58:53.132Z,73.50
2017-09-17T22:01:20.598Z,73.40
2017-09-17T22:03:48.064Z,73.40
2017-09-17T22:06:15.517Z,73.40
2017-09-17T22:08:42.960Z,73.40
2017-09-17T22:11:10.407Z,73.50
2017-09-17T22:13:38.629Z,73.60
2017-09-17T22:16:06.082Z,73.60
2017-09-17T22:18:33.543Z,73.60
2017-09-17T22:21:01.017Z,73.60
2017-09-17T22:23:28.468Z,73.70
2017-09-17T22:25:55.918Z,73.70
2017-09-17T22:28:23.390Z,73.60
2017-09-17T22:30:50.841Z,73.40
2017-09-17T22:33:18.301Z,73.30
2017-09-17T22:35:45.749Z,73.20
2017-09-17T22:38:13.973Z,73.40
2017-09-17T22:40:41.421Z,73.40
2017-09-17T22:43:08.898Z,73.40
2017-09-17T22:45:36.349Z,73.40
2017-09-17T22:48:03.795Z,73.40
2017-09-17T22:50:31.265Z,73.40
2017-09-17T22:52:58.713Z,73.40
2017-09-17T22:55:26.936Z,73.40
2017-09-17T22:57:54.392Z,73.40
2017-09-17T23:00:21.872Z,73.50
2017-09-17T23:02:49.333Z,73.60
2017-09-17T23:05:16.896Z,73.60
2017-09-17T23:07:44.355Z,73.70
2017-09-17T23:10:11.821Z,73.60
2017-09-17T23:12:39.277Z,73.60
2017-09-17T23:15:06.734Z,73.50
2017-09-17T23:17:34.199Z,73.60
2017-09-17T23:20:01.650Z,73.60
2017-09-17T23:22:29.236Z,73.70
2017-09-17T23:24:56.701Z,73.90
2017-09-17T23:27:24.157Z,74.00
2017-09-17T23:29:51.613Z,74.20
2017-09-17T23:32:19.061Z,74.10
2017-09-17T23:34:46.524Z,73.90
2017-09-17T23:37:13.983Z,73.80
2017-09-17T23:39:41.449Z,73.70
2017-09-17T23:42:08.898Z,73.70
2017-09-17T23:44:36.356Z,73.80
2017-09-17T23:47:03.814Z,73.60
2017-09-17T23:49:31.332Z,73.70
2017-09-17T23:51:58.812Z,73.70
2017-09-17T23:54:26.234Z,73.90
2017-09-17T23:56:53.729Z,73.80
2017-09-17T23:59:21.201Z,73.80
